createdAt,value
2023-05-19T00:00:24.914Z,92.43
2023-05-19T00:03:13.678Z,94.52
2023-05-19T00:05:45.804Z,94.03
2023-05-19T00:08:17.632Z,93.40
2023-05-19T00:10:46.504Z,95.14
2023-05-19T00:13:15.185Z,96.82
2023-05-19T00:15:45.714Z,98.51
2023-05-19T00:18:14.582Z,96.74
2023-05-19T00:20:43.469Z,98.04
2023-05-19T00:23:11.970Z,99.36
2023-05-19T00:25:40.495Z,99.15
2023-05-19T00:28:08.633Z,97.85
2023-05-19T00:30:37.065Z,97.92
2023-05-19T00:33:06.727Z,97.08
2023-05-19T00:35:35.337Z,97.98
2023-05-19T00:38:03.482Z,97.47
2023-05-19T00:40:33.344Z,98.55
2023-05-19T00:43:01.740Z,96.95
2023-05-19T00:45:30.262Z,97.60
2023-05-19T00:47:58.668Z,97.63
2023-05-19T00:50:29.451Z,96.99
2023-05-19T00:52:57.983Z,97.43
2023-05-19T00:55:29.297Z,97.86
2023-05-19T00:57:58.118Z,96.58
2023-05-19T01:00:26.649Z,96.61
2023-05-19T01:02:56.220Z,97.22
2023-05-19T01:05:24.669Z,98.43
2023-05-19T01:07:56.487Z,96.65
2023-05-19T01:10:25.021Z,97.55
2023-05-19T01:12:53.233Z,97.51
2023-05-19T01:15:22.131Z,98.02
2023-05-19T01:17:55.710Z,98.88
2023-05-19T01:20:33.917Z,97.39
2023-05-19T01:23:24.884Z,97.10
2023-05-19T01:26:19.406Z,96.69
2023-05-19T01:29:10.100Z,99.34
2023-05-19T01:31:43.406Z,99.04
2023-05-19T01:34:14.383Z,100.00
2023-05-19T01:36:44.998Z,99.08
2023-05-19T01:39:14.254Z,100.00
2023-05-19T01:41:44.670Z,100.00
2023-05-19T01:44:13.303Z,99.92
2023-05-19T01:46:43.387Z,100.00
2023-05-19T01:49:14.821Z,99.16
2023-05-19T01:51:44.132Z,99.47
2023-05-19T01:54:12.292Z,100.00
2023-05-19T01:56:46.520Z,100.00
2023-05-19T01:59:29.566Z,100.00
2023-05-19T02:02:04.192Z,100.00
2023-05-19T02:04:40.672Z,100.00
2023-05-19T02:07:16.825Z,100.00
2023-05-19T02:09:54.270Z,100.00
2023-05-19T02:12:29.589Z,100.00
2023-05-19T02:15:04.710Z,100.00
2023-05-19T02:17:37.501Z,100.00
2023-05-19T02:20:06.933Z,100.00
2023-05-19T02:22:35.722Z,100.00
2023-05-19T02:25:04.213Z,100.00
2023-05-19T02:27:32.658Z,100.00
2023-05-19T02:30:00.795Z,100.00
2023-05-19T02:32:29.264Z,100.00
2023-05-19T02:34:58.825Z,100.00
2023-05-19T02:37:28.706Z,100.00
2023-05-19T02:39:57.118Z,100.00
2023-05-19T02:42:25.596Z,100.00
2023-05-19T02:44:55.290Z,100.00
2023-05-19T02:47:26.562Z,100.00
2023-05-19T02:49:54.755Z,100.00
2023-05-19T02:52:24.759Z,100.00
2023-05-19T02:54:52.900Z,100.00
2023-05-19T02:57:22.243Z,100.00
2023-05-19T02:59:51.099Z,100.00
2023-05-19T03:02:19.669Z,100.00
2023-05-19T03:04:47.834Z,100.00
2023-05-19T03:07:16.511Z,100.00
2023-05-19T03:09:46.374Z,100.00
2023-05-19T03:12:14.805Z,100.00
2023-05-19T03:14:44.404Z,100.00
2023-05-19T03:17:13.174Z,99.58
2023-05-19T03:19:41.586Z,98.91
2023-05-19T03:22:10.049Z,97.76
2023-05-19T03:24:38.164Z,97.57
2023-05-19T03:27:08.123Z,96.94
2023-05-19T03:29:36.928Z,95.96
2023-05-19T03:32:05.986Z,95.82
2023-05-19T03:34:35.479Z,95.16
2023-05-19T03:37:03.986Z,94.99
2023-05-19T03:39:32.115Z,93.62
2023-05-19T03:42:00.550Z,93.08
2023-05-19T03:44:31.439Z,92.95
2023-05-19T03:46:59.924Z,92.64
2023-05-19T03:49:28.058Z,92.89
2023-05-19T03:51:56.480Z,92.56
2023-05-19T03:54:24.777Z,91.95
2023-05-19T03:56:53.242Z,91.28
2023-05-19T03:59:21.456Z,91.06
2023-05-19T04:01:51.494Z,90.59
2023-05-19T04:04:19.746Z,90.32
2023-05-19T04:06:48.795Z,90.49
2023-05-19T04:09:17.747Z,90.00
2023-05-19T04:11:46.224Z,89.57
2023-05-19T04:14:14.366Z,88.31
2023-05-19T04:16:42.934Z,88.80
2023-05-19T04:19:13.488Z,88.25
2023-05-19T04:21:41.965Z,88.89
2023-05-19T04:24:10.172Z,88.22
2023-05-19T04:26:41.868Z,87.35
2023-05-19T04:29:10.773Z,86.83
2023-05-19T04:31:41.021Z,86.69
2023-05-19T04:34:10.100Z,86.23
2023-05-19T04:36:42.174Z,85.81
2023-05-19T04:39:12.377Z,85.20
2023-05-19T04:41:42.103Z,85.87
2023-05-19T04:44:10.096Z,85.18
2023-05-19T04:46:38.607Z,85.06
2023-05-19T04:49:06.886Z,84.79
2023-05-19T04:51:37.162Z,84.46
2023-05-19T04:54:06.857Z,83.80
2023-05-19T04:56:35.304Z,83.12
2023-05-19T04:59:03.480Z,82.90
2023-05-19T05:01:33.907Z,81.73
2023-05-19T05:04:02.757Z,83.11
2023-05-19T05:06:31.788Z,81.43
2023-05-19T05:09:00.711Z,81.75
2023-05-19T05:11:34.067Z,81.66
2023-05-19T05:14:02.787Z,81.20
2023-05-19T05:16:32.080Z,82.04
2023-05-19T05:19:04.352Z,81.39
2023-05-19T05:21:33.351Z,81.32
2023-05-19T05:24:02.019Z,81.50
2023-05-19T05:26:34.831Z,80.84
2023-05-19T05:29:03.121Z,82.14
2023-05-19T05:31:31.641Z,81.19
2023-05-19T05:33:59.971Z,80.69
2023-05-19T05:36:28.386Z,79.39
2023-05-19T05:38:56.563Z,77.87
2023-05-19T05:41:24.981Z,77.68
2023-05-19T05:43:54.495Z,76.77
2023-05-19T05:46:22.966Z,74.04
2023-05-19T05:48:51.790Z,75.40
2023-05-19T05:51:22.759Z,75.54
2023-05-19T05:53:53.929Z,75.50
2023-05-19T05:56:23.200Z,75.69
2023-05-19T05:58:52.139Z,73.52
2023-05-19T06:01:21.977Z,74.10
2023-05-19T06:03:50.136Z,73.50
2023-05-19T06:06:18.552Z,71.33
2023-05-19T06:08:46.808Z,70.73
2023-05-19T06:11:15.278Z,71.47
2023-05-19T06:13:43.427Z,71.36
2023-05-19T06:16:12.208Z,70.54
2023-05-19T06:18:41.864Z,71.18
2023-05-19T06:21:13.563Z,71.47
2023-05-19T06:23:41.809Z,70.68
2023-05-19T06:26:10.320Z,71.93
2023-05-19T06:28:38.438Z,72.41
2023-05-19T06:31:06.913Z,72.50
2023-05-19T06:33:35.133Z,72.61
2023-05-19T06:36:05.596Z,70.81
2023-05-19T06:38:33.739Z,72.09
2023-05-19T06:41:02.462Z,71.19
2023-05-19T06:43:30.577Z,71.01
2023-05-19T06:45:59.105Z,72.74
2023-05-19T06:48:27.433Z,71.72
2023-05-19T06:50:56.123Z,72.25
2023-05-19T06:53:25.690Z,72.60
2023-05-19T06:55:59.843Z,72.93
2023-05-19T06:58:29.018Z,73.57
2023-05-19T07:00:57.633Z,74.69
2023-05-19T07:03:27.291Z,75.24
2023-05-19T07:05:56.299Z,76.07
2023-05-19T07:08:28.002Z,75.61
2023-05-19T07:10:56.537Z,75.50
2023-05-19T07:13:27.222Z,74.85
2023-05-19T07:15:56.788Z,73.18
2023-05-19T07:18:25.521Z,70.47
2023-05-19T07:20:54.374Z,69.96
2023-05-19T07:23:22.511Z,70.41
2023-05-19T07:25:56.197Z,70.19
2023-05-19T07:28:24.586Z,68.57
2023-05-19T07:30:53.246Z,67.92
2023-05-19T07:33:21.773Z,66.39
2023-05-19T07:35:50.337Z,64.63
2023-05-19T07:38:18.490Z,64.52
2023-05-19T07:40:46.967Z,62.91
2023-05-19T07:43:16.526Z,62.78
2023-05-19T07:45:45.199Z,62.10
2023-05-19T07:48:14.163Z,61.82
2023-05-19T07:50:42.703Z,61.45
2023-05-19T07:53:10.802Z,61.53
2023-05-19T07:55:39.230Z,60.44
2023-05-19T07:58:07.373Z,60.39
2023-05-19T08:00:37.771Z,58.51
2023-05-19T08:03:06.186Z,58.99
2023-05-19T08:05:35.734Z,58.68
2023-05-19T08:08:03.907Z,58.31
2023-05-19T08:10:32.583Z,58.44
2023-05-19T08:13:00.854Z,59.48
2023-05-19T08:15:29.623Z,58.60
2023-05-19T08:17:59.326Z,57.55
2023-05-19T08:20:27.780Z,56.98
2023-05-19T08:22:55.920Z,55.01
2023-05-19T08:25:24.495Z,54.80
2023-05-19T08:27:52.651Z,53.93
2023-05-19T08:30:21.488Z,55.30
2023-05-19T08:32:49.682Z,53.75
2023-05-19T08:35:19.524Z,53.14
2023-05-19T08:37:47.785Z,52.40
2023-05-19T08:40:19.095Z,52.96
2023-05-19T08:42:47.515Z,54.43
2023-05-19T08:45:16.222Z,54.50
2023-05-19T08:47:47.746Z,53.40
2023-05-19T08:50:22.985Z,52.84
2023-05-19T08:52:53.684Z,53.88
2023-05-19T08:55:34.045Z,54.25
2023-05-19T08:58:04.730Z,53.82
2023-05-19T09:00:34.543Z,52.43
2023-05-19T09:03:17.411Z,53.78
2023-05-19T09:05:48.161Z,53.80
2023-05-19T09:08:16.725Z,52.75
2023-05-19T09:10:45.350Z,54.02
2023-05-19T09:13:13.680Z,54.37
2023-05-19T09:15:43.630Z,54.34
2023-05-19T09:18:13.309Z,54.11
2023-05-19T09:20:43.189Z,51.78
2023-05-19T09:23:16.622Z,51.87
2023-05-19T09:25:49.660Z,52.78
2023-05-19T09:28:25.376Z,51.58
2023-05-19T09:31:04.298Z,52.19
2023-05-19T09:33:35.629Z,51.73
2023-05-19T09:36:06.149Z,52.41
2023-05-19T09:38:36.519Z,52.81
2023-05-19T09:41:06.526Z,52.11
2023-05-19T09:43:36.466Z,52.77
2023-05-19T09:46:06.747Z,52.79
2023-05-19T09:48:36.571Z,52.21
2023-05-19T09:51:06.591Z,53.50
2023-05-19T09:53:36.412Z,53.51
2023-05-19T09:56:05.210Z,53.68
2023-05-19T09:58:36.641Z,53.78
2023-05-19T10:01:06.496Z,53.42
2023-05-19T10:03:35.138Z,53.46
2023-05-19T10:06:07.094Z,53.25
2023-05-19T10:08:38.632Z,55.35
2023-05-19T10:11:07.697Z,55.33
2023-05-19T10:13:38.723Z,55.77
2023-05-19T10:16:09.942Z,55.21
2023-05-19T10:18:40.218Z,56.32
2023-05-19T10:21:09.998Z,56.16
2023-05-19T10:23:39.512Z,56.04
2023-05-19T10:26:09.234Z,56.28
2023-05-19T10:28:40.988Z,56.65
2023-05-19T10:31:14.064Z,56.63
2023-05-19T10:33:58.376Z,56.50
2023-05-19T10:36:38.574Z,56.14
2023-05-19T10:39:18.308Z,55.75
2023-05-19T10:42:01.824Z,57.29
2023-05-19T10:44:42.275Z,57.22
2023-05-19T10:47:12.390Z,56.21
2023-05-19T10:49:41.361Z,57.18
2023-05-19T10:52:21.557Z,57.80
2023-05-19T10:54:51.496Z,58.06
2023-05-19T10:57:21.535Z,58.59
2023-05-19T10:59:50.038Z,59.26
2023-05-19T11:02:41.538Z,59.03
2023-05-19T11:05:11.112Z,59.19
2023-05-19T11:07:43.533Z,57.83
2023-05-19T11:10:14.423Z,57.49
2023-05-19T11:12:44.397Z,57.16
2023-05-19T11:15:14.134Z,57.47
2023-05-19T11:17:43.803Z,57.32
2023-05-19T11:20:22.690Z,57.10
2023-05-19T11:23:07.587Z,55.06
2023-05-19T11:25:48.417Z,55.70
2023-05-19T11:28:19.472Z,55.34
2023-05-19T11:30:51.944Z,54.95
2023-05-19T11:33:21.901Z,54.70
2023-05-19T11:35:51.757Z,53.84
2023-05-19T11:38:21.088Z,53.91
2023-05-19T11:40:54.532Z,54.07
2023-05-19T11:43:24.544Z,53.16
2023-05-19T11:45:53.488Z,52.48
2023-05-19T11:48:23.254Z,52.44
2023-05-19T11:50:52.593Z,50.20
2023-05-19T11:53:21.223Z,50.11
2023-05-19T11:55:51.087Z,50.27
2023-05-19T11:58:27.133Z,50.37
2023-05-19T12:00:55.548Z,50.68
2023-05-19T12:03:28.782Z,49.05
2023-05-19T12:05:57.856Z,49.86
2023-05-19T12:08:27.304Z,50.57
2023-05-19T12:10:57.384Z,50.94
2023-05-19T12:13:26.661Z,49.97
2023-05-19T12:15:54.912Z,51.56
2023-05-19T12:18:23.553Z,52.48
2023-05-19T12:20:51.894Z,52.64
2023-05-19T12:23:20.852Z,53.11
2023-05-19T12:25:50.627Z,53.48
2023-05-19T12:28:20.652Z,55.04
2023-05-19T12:30:52.030Z,55.30
2023-05-19T12:33:20.676Z,58.26
2023-05-19T12:35:50.516Z,55.99
2023-05-19T12:38:21.008Z,56.70
2023-05-19T12:40:50.994Z,56.91
2023-05-19T12:43:24.691Z,57.17
2023-05-19T12:45:53.474Z,58.08
2023-05-19T12:48:23.786Z,61.79
2023-05-19T12:50:54.362Z,59.61
2023-05-19T12:53:23.197Z,57.31
2023-05-19T12:55:53.865Z,57.25
2023-05-19T12:58:24.945Z,60.30
2023-05-19T13:01:00.810Z,62.49
2023-05-19T13:03:29.552Z,60.96
2023-05-19T13:05:59.692Z,60.61
2023-05-19T13:08:28.407Z,60.67
2023-05-19T13:10:56.522Z,60.68
2023-05-19T13:13:26.355Z,62.56
2023-05-19T13:15:54.859Z,60.51
2023-05-19T13:18:23.419Z,64.10
2023-05-19T13:20:53.055Z,62.24
2023-05-19T13:23:21.506Z,62.02
2023-05-19T13:25:51.554Z,63.76
2023-05-19T13:28:19.967Z,63.21
2023-05-19T13:30:49.732Z,62.30
2023-05-19T13:33:18.318Z,61.88
2023-05-19T13:35:46.466Z,61.86
2023-05-19T13:38:14.895Z,63.14
2023-05-19T13:40:43.024Z,63.39
2023-05-19T13:43:11.773Z,62.98
2023-05-19T13:45:41.256Z,62.15
2023-05-19T13:48:11.805Z,64.25
2023-05-19T13:50:40.036Z,64.16
2023-05-19T13:53:08.535Z,65.04
2023-05-19T13:55:36.663Z,65.82
2023-05-19T13:58:05.087Z,64.86
2023-05-19T14:00:33.639Z,65.31
2023-05-19T14:03:02.360Z,63.54
2023-05-19T14:05:32.656Z,64.20
2023-05-19T14:08:01.347Z,69.49
2023-05-19T14:10:29.641Z,72.89
2023-05-19T14:15:32.460Z,69.73
2023-05-19T14:18:00.913Z,69.11
2023-05-19T14:20:29.484Z,70.05
2023-05-19T14:22:59.379Z,73.90
2023-05-19T14:25:27.523Z,75.91
2023-05-19T14:27:56.000Z,80.36
2023-05-19T14:30:24.224Z,79.68
2023-05-19T14:32:52.914Z,80.22
2023-05-19T14:35:21.575Z,80.76
2023-05-19T14:37:49.988Z,79.00
2023-05-19T14:40:20.110Z,82.03
2023-05-19T14:42:48.615Z,82.47
2023-05-19T14:45:16.824Z,81.45
2023-05-19T14:47:46.194Z,82.74
2023-05-19T14:50:15.291Z,81.59
2023-05-19T14:52:43.742Z,86.68
2023-05-19T14:55:11.875Z,85.88
2023-05-19T14:57:41.693Z,87.08
2023-05-19T15:00:10.415Z,85.82
2023-05-19T15:02:39.084Z,85.31
2023-05-19T15:05:07.936Z,84.61
2023-05-19T15:07:36.456Z,84.10
2023-05-19T15:10:05.353Z,86.42
2023-05-19T15:12:33.872Z,88.49
2023-05-19T15:15:03.965Z,85.42
2023-05-19T15:17:33.586Z,83.42
2023-05-19T15:20:02.065Z,86.16
2023-05-19T15:22:30.614Z,83.98
2023-05-19T15:24:58.726Z,82.69
2023-05-19T15:27:27.296Z,82.14
2023-05-19T15:29:55.738Z,80.93
2023-05-19T15:32:25.661Z,82.32
2023-05-19T15:34:53.956Z,80.61
2023-05-19T15:37:22.344Z,83.35
2023-05-19T15:39:50.572Z,84.10
2023-05-19T15:42:19.057Z,87.29
2023-05-19T15:44:47.841Z,90.11
2023-05-19T15:47:16.300Z,88.88
2023-05-19T15:49:45.848Z,90.92
2023-05-19T15:52:14.287Z,88.85
2023-05-19T15:54:42.588Z,91.37
2023-05-19T15:57:11.090Z,90.72
2023-05-19T15:59:39.506Z,89.05
2023-05-19T16:02:08.498Z,90.88
2023-05-19T16:04:37.800Z,92.36
2023-05-19T16:07:07.765Z,90.79
2023-05-19T16:09:35.948Z,93.84
2023-05-19T16:12:04.838Z,92.11
2023-05-19T16:14:36.450Z,91.63
2023-05-19T16:17:10.994Z,92.27
2023-05-19T16:19:39.319Z,91.82
2023-05-19T16:22:09.161Z,90.33
2023-05-19T16:24:37.656Z,88.76
2023-05-19T16:27:06.758Z,89.16
2023-05-19T16:29:34.974Z,90.15
2023-05-19T16:32:03.509Z,90.97
2023-05-19T16:34:32.474Z,90.43
2023-05-19T16:37:01.792Z,88.21
2023-05-19T16:39:40.725Z,87.96
2023-05-19T16:42:09.454Z,86.73
2023-05-19T16:44:37.789Z,86.10
2023-05-19T16:47:06.520Z,85.69
2023-05-19T16:49:35.070Z,85.13
2023-05-19T16:52:03.810Z,85.47
2023-05-19T16:54:36.130Z,88.65
2023-05-19T16:57:05.054Z,87.85
2023-05-19T16:59:33.239Z,87.80
2023-05-19T17:02:01.941Z,87.91
2023-05-19T17:04:31.027Z,88.78
2023-05-19T17:06:59.281Z,92.02
2023-05-19T17:09:28.101Z,92.09
2023-05-19T17:11:57.955Z,90.76
2023-05-19T17:14:26.204Z,91.45
2023-05-19T17:16:54.670Z,90.81
2023-05-19T17:19:23.098Z,88.87
2023-05-19T17:21:51.620Z,88.50
2023-05-19T17:24:19.838Z,89.64
2023-05-19T17:26:49.889Z,90.88
2023-05-19T17:29:19.588Z,91.88
2023-05-19T17:31:48.053Z,90.62
2023-05-19T17:34:16.311Z,91.89
2023-05-19T17:36:44.743Z,92.61
2023-05-19T17:39:12.927Z,94.16
2023-05-19T17:41:41.469Z,94.04
2023-05-19T17:44:09.858Z,94.94
2023-05-19T17:46:39.760Z,94.96
2023-05-19T17:49:08.071Z,95.14
2023-05-19T17:51:37.007Z,93.01
2023-05-19T17:54:06.268Z,95.71
2023-05-19T17:56:40.141Z,94.99
2023-05-19T17:59:08.903Z,95.80
2023-05-19T18:01:40.830Z,95.68
2023-05-19T18:04:10.493Z,96.92
2023-05-19T18:06:40.237Z,96.43
2023-05-19T18:09:09.383Z,95.74
2023-05-19T18:11:38.504Z,95.72
2023-05-19T18:14:06.765Z,96.28
2023-05-19T18:16:35.297Z,95.98
2023-05-19T18:19:04.912Z,97.03
2023-05-19T18:21:33.838Z,97.24
2023-05-19T18:24:03.142Z,98.15
2023-05-19T18:26:33.097Z,99.93
2023-05-19T18:29:07.824Z,100.00
2023-05-19T18:31:36.381Z,99.37
2023-05-19T18:34:06.254Z,100.00
2023-05-19T18:36:37.694Z,100.00
2023-05-19T18:39:06.009Z,100.00
2023-05-19T18:41:37.489Z,100.00
2023-05-19T18:44:08.145Z,100.00
2023-05-19T18:46:36.677Z,100.00
2023-05-19T18:49:06.320Z,100.00
2023-05-19T18:51:36.069Z,100.00
2023-05-19T18:54:04.287Z,100.00
2023-05-19T18:56:34.141Z,99.71
2023-05-19T18:59:02.437Z,99.43
2023-05-19T19:01:30.920Z,100.00
2023-05-19T19:03:59.314Z,99.25
2023-05-19T19:06:29.358Z,100.00
2023-05-19T19:08:57.965Z,100.00
2023-05-19T19:11:26.376Z,99.86
2023-05-19T19:13:56.396Z,100.00
2023-05-19T19:16:25.060Z,100.00
2023-05-19T19:18:55.796Z,100.00
2023-05-19T19:21:27.333Z,100.00
2023-05-19T19:23:58.724Z,100.00
2023-05-19T19:26:29.118Z,100.00
2023-05-19T19:28:57.531Z,100.00
2023-05-19T19:31:29.752Z,100.00
2023-05-19T19:34:00.929Z,100.00
2023-05-19T19:36:32.130Z,100.00
2023-05-19T19:39:01.713Z,100.00
2023-05-19T19:41:31.681Z,100.00
2023-05-19T19:44:00.132Z,100.00
2023-05-19T19:46:28.796Z,100.00
2023-05-19T19:48:59.206Z,100.00
2023-05-19T19:51:28.045Z,100.00
2023-05-19T19:53:56.360Z,100.00
2023-05-19T19:56:27.591Z,100.00
2023-05-19T19:58:56.889Z,100.00
2023-05-19T20:01:30.583Z,100.00
2023-05-19T20:03:58.879Z,100.00
2023-05-19T20:06:27.398Z,100.00
2023-05-19T20:08:58.058Z,100.00
2023-05-19T20:11:28.287Z,100.00
2023-05-19T20:13:56.780Z,100.00
2023-05-19T20:16:25.633Z,100.00
2023-05-19T20:18:53.827Z,100.00
2023-05-19T20:21:22.262Z,100.00
2023-05-19T20:23:51.203Z,100.00
2023-05-19T20:26:20.558Z,100.00
2023-05-19T20:28:50.081Z,100.00
2023-05-19T20:31:18.653Z,100.00
2023-05-19T20:33:49.550Z,100.00
2023-05-19T20:36:18.180Z,100.00
2023-05-19T20:38:47.943Z,100.00
2023-05-19T20:41:16.684Z,100.00
2023-05-19T20:43:44.868Z,100.00
2023-05-19T20:46:15.056Z,100.00
2023-05-19T20:48:43.235Z,100.00
2023-05-19T20:51:11.830Z,100.00
2023-05-19T20:53:42.302Z,100.00
2023-05-19T20:56:11.310Z,100.00
2023-05-19T20:58:39.444Z,100.00
2023-05-19T21:01:07.882Z,100.00
2023-05-19T21:03:37.424Z,100.00
2023-05-19T21:06:06.066Z,100.00
2023-05-19T21:08:34.320Z,100.00
2023-05-19T21:11:02.747Z,100.00
2023-05-19T21:13:30.987Z,100.00
2023-05-19T21:15:59.604Z,100.00
2023-05-19T21:18:29.629Z,100.00
2023-05-19T21:21:03.407Z,100.00
2023-05-19T21:23:31.781Z,100.00
2023-05-19T21:26:04.828Z,100.00
2023-05-19T21:28:33.010Z,100.00
2023-05-19T21:31:01.527Z,100.00
2023-05-19T21:33:32.522Z,100.00
2023-05-19T21:36:02.389Z,100.00
2023-05-19T21:38:30.643Z,100.00
2023-05-19T21:40:59.141Z,100.00
2023-05-19T21:43:27.338Z,100.00
2023-05-19T21:45:55.782Z,100.00
2023-05-19T21:48:23.958Z,100.00
2023-05-19T21:50:55.540Z,100.00
2023-05-19T21:53:27.703Z,100.00
2023-05-19T21:55:56.275Z,100.00
2023-05-19T21:58:25.116Z,100.00
2023-05-19T22:00:54.947Z,100.00
2023-05-19T22:03:23.583Z,100.00
2023-05-19T22:05:53.354Z,99.80
2023-05-19T22:08:22.340Z,99.37
2023-05-19T22:10:53.720Z,99.71
2023-05-19T22:13:22.090Z,99.28
2023-05-19T22:15:50.872Z,98.73
2023-05-19T22:18:19.153Z,99.16
2023-05-19T22:20:47.676Z,97.94
2023-05-19T22:23:15.967Z,98.14
2023-05-19T22:25:44.554Z,98.29
2023-05-19T22:28:14.437Z,97.36
2023-05-19T22:30:44.088Z,97.64
2023-05-19T22:33:12.630Z,99.10
2023-05-19T22:35:41.181Z,98.33
2023-05-19T22:38:10.583Z,98.90
2023-05-19T22:40:39.822Z,97.85
2023-05-19T22:43:10.037Z,97.84
2023-05-19T22:45:40.143Z,98.24
2023-05-19T22:48:08.592Z,97.49
2023-05-19T22:50:37.365Z,97.16
2023-05-19T22:53:05.476Z,95.70
2023-05-19T22:55:34.173Z,95.04
2023-05-19T22:58:02.575Z,94.10
2023-05-19T23:00:31.220Z,92.97
2023-05-19T23:03:00.847Z,90.78
2023-05-19T23:05:30.448Z,91.43
2023-05-19T23:07:58.599Z,91.65
2023-05-19T23:10:27.036Z,90.87
2023-05-19T23:12:55.350Z,90.35
2023-05-19T23:15:23.881Z,89.42
2023-05-19T23:17:52.126Z,89.25
2023-05-19T23:20:22.100Z,89.16
2023-05-19T23:22:50.213Z,88.73
2023-05-19T23:25:18.719Z,89.53
2023-05-19T23:27:47.592Z,89.10
2023-05-19T23:30:16.067Z,89.39
2023-05-19T23:32:44.213Z,90.26
2023-05-19T23:35:14.300Z,89.59
2023-05-19T23:37:43.996Z,89.32
2023-05-19T23:40:13.185Z,89.27
2023-05-19T23:42:41.355Z,89.89
2023-05-19T23:45:10.277Z,89.78
2023-05-19T23:47:38.803Z,88.72
2023-05-19T23:50:08.152Z,90.49
2023-05-19T23:52:36.286Z,89.21
2023-05-19T23:55:07.695Z,89.17
2023-05-19T23:57:35.840Z,88.22
